createdAt,value
2023-05-05T00:01:11.102Z,45.44
2023-05-05T00:03:39.110Z,45.81
2023-05-05T00:06:08.070Z,45.44
2023-05-05T00:08:35.990Z,45.30
2023-05-05T00:11:03.883Z,45.58
2023-05-05T00:13:31.764Z,45.50
2023-05-05T00:16:01.057Z,45.27
2023-05-05T00:18:29.550Z,45.38
2023-05-05T00:20:57.467Z,45.92
2023-05-05T00:23:25.378Z,45.99
2023-05-05T00:25:53.182Z,46.54
2023-05-05T00:28:21.151Z,46.59
2023-05-05T00:30:49.083Z,46.23
2023-05-05T00:33:18.407Z,46.32
2023-05-05T00:35:46.427Z,45.83
2023-05-05T00:38:14.374Z,46.05
2023-05-05T00:40:42.307Z,46.30
2023-05-05T00:43:10.230Z,46.29
2023-05-05T00:45:41.830Z,46.76
2023-05-05T00:48:10.483Z,46.24
2023-05-05T00:50:40.800Z,45.77
2023-05-05T00:53:08.699Z,46.80
2023-05-05T00:55:36.641Z,47.32
2023-05-05T00:58:05.480Z,47.55
2023-05-05T01:00:34.242Z,47.69
2023-05-05T01:03:03.213Z,46.40
2023-05-05T01:05:49.889Z,46.72
2023-05-05T01:08:34.816Z,46.28
2023-05-05T01:11:12.616Z,45.89
2023-05-05T01:13:53.728Z,46.57
2023-05-05T01:16:27.826Z,46.86
2023-05-05T01:19:12.427Z,47.02
2023-05-05T01:21:47.803Z,46.48
2023-05-05T01:24:44.981Z,46.48
2023-05-05T01:27:35.074Z,47.56
2023-05-05T01:30:29.662Z,47.66
2023-05-05T01:33:04.995Z,47.09
2023-05-05T01:35:38.911Z,48.30
2023-05-05T01:38:12.718Z,46.94
2023-05-05T01:40:49.894Z,47.10
2023-05-05T01:43:24.491Z,47.15
2023-05-05T01:45:55.918Z,48.23
2023-05-05T01:48:27.512Z,47.64
2023-05-05T01:50:55.831Z,47.93
2023-05-05T01:53:26.649Z,47.84
2023-05-05T01:55:58.330Z,48.21
2023-05-05T01:58:31.088Z,47.77
2023-05-05T02:01:00.122Z,48.76
2023-05-05T02:03:34.114Z,48.66
2023-05-05T02:06:04.053Z,48.25
2023-05-05T02:08:33.964Z,48.15
2023-05-05T02:11:02.825Z,47.42
2023-05-05T02:13:33.521Z,48.31
2023-05-05T02:16:04.150Z,48.21
2023-05-05T02:18:36.081Z,48.88
2023-05-05T02:21:04.595Z,48.62
2023-05-05T02:23:32.925Z,49.67
2023-05-05T02:26:07.375Z,49.57
2023-05-05T02:28:43.929Z,49.53
2023-05-05T02:31:15.280Z,49.97
2023-05-05T02:33:48.045Z,49.57
2023-05-05T02:36:22.324Z,50.64
2023-05-05T02:38:56.684Z,50.03
2023-05-05T02:41:29.519Z,49.77
2023-05-05T02:44:00.634Z,50.01
2023-05-05T02:46:29.594Z,50.47
2023-05-05T02:48:59.714Z,49.26
2023-05-05T02:51:27.613Z,50.15
2023-05-05T02:53:56.359Z,49.72
2023-05-05T02:56:35.414Z,49.67
2023-05-05T02:59:15.955Z,50.06
2023-05-05T03:02:01.714Z,50.20
2023-05-05T03:04:39.874Z,49.38
2023-05-05T03:07:14.219Z,49.93
2023-05-05T03:09:48.463Z,49.89
2023-05-05T03:12:23.204Z,50.39
2023-05-05T03:14:55.213Z,50.49
2023-05-05T03:17:26.619Z,50.46
2023-05-05T03:19:57.424Z,51.35
2023-05-05T03:22:27.600Z,49.81
2023-05-05T03:24:55.453Z,50.14
2023-05-05T03:27:23.390Z,50.52
2023-05-05T03:29:51.313Z,51.19
2023-05-05T03:32:19.175Z,50.87
2023-05-05T03:34:47.091Z,51.18
2023-05-05T03:37:16.413Z,50.68
2023-05-05T03:39:44.213Z,51.07
2023-05-05T03:42:12.008Z,51.02
2023-05-05T03:44:39.862Z,50.24
2023-05-05T03:47:07.776Z,50.77
2023-05-05T03:49:35.618Z,50.82
2023-05-05T03:52:03.454Z,51.38
2023-05-05T03:54:32.648Z,51.71
2023-05-05T03:57:00.450Z,51.81
2023-05-05T03:59:28.640Z,51.19
2023-05-05T04:01:56.792Z,52.22
2023-05-05T04:04:24.763Z,52.48
2023-05-05T04:06:52.650Z,52.34
2023-05-05T04:09:20.480Z,52.73
2023-05-05T04:11:49.752Z,51.89
2023-05-05T04:14:17.579Z,52.25
2023-05-05T04:16:45.497Z,52.21
2023-05-05T04:19:14.058Z,51.87
2023-05-05T04:21:41.918Z,52.50
2023-05-05T04:24:09.839Z,52.33
2023-05-05T04:26:37.682Z,52.05
2023-05-05T04:29:06.859Z,52.41
2023-05-05T04:31:34.700Z,52.12
2023-05-05T04:34:02.540Z,52.33
2023-05-05T04:36:30.434Z,52.07
2023-05-05T04:38:58.271Z,51.82
2023-05-05T04:41:27.299Z,51.47
2023-05-05T04:43:56.447Z,52.33
2023-05-05T04:46:25.853Z,52.08
2023-05-05T04:48:53.788Z,52.25
2023-05-05T04:51:21.776Z,52.68
2023-05-05T04:53:49.713Z,52.83
2023-05-05T04:56:17.655Z,52.93
2023-05-05T04:58:45.773Z,53.95
2023-05-05T05:01:13.667Z,53.36
2023-05-05T05:03:42.995Z,54.59
2023-05-05T05:06:11.031Z,54.92
2023-05-05T05:08:38.942Z,54.70
2023-05-05T05:11:06.996Z,54.06
2023-05-05T05:13:35.098Z,53.74
2023-05-05T05:16:03.535Z,53.88
2023-05-05T05:18:33.436Z,53.65
2023-05-05T05:21:03.465Z,52.96
2023-05-05T05:23:31.532Z,53.28
2023-05-05T05:25:59.737Z,53.54
2023-05-05T05:28:27.777Z,53.06
2023-05-05T05:30:55.702Z,53.53
2023-05-05T05:33:23.581Z,53.21
2023-05-05T05:35:51.460Z,53.47
2023-05-05T05:38:20.764Z,53.58
2023-05-05T05:40:48.699Z,53.60
2023-05-05T05:43:16.636Z,53.11
2023-05-05T05:45:44.683Z,53.80
2023-05-05T05:48:12.580Z,54.13
2023-05-05T05:50:40.500Z,52.53
2023-05-05T05:53:08.385Z,52.99
2023-05-05T05:55:37.643Z,53.01
2023-05-05T05:58:06.093Z,52.46
2023-05-05T06:00:33.924Z,52.34
2023-05-05T06:03:02.021Z,52.55
2023-05-05T06:05:29.922Z,52.55
2023-05-05T06:07:57.768Z,52.08
2023-05-05T06:10:28.271Z,52.97
2023-05-05T06:12:57.784Z,51.61
2023-05-05T06:15:25.941Z,51.85
2023-05-05T06:17:53.871Z,52.44
2023-05-05T06:20:21.866Z,51.51
2023-05-05T06:22:49.685Z,51.79
2023-05-05T06:25:17.752Z,52.14
2023-05-05T06:27:45.981Z,53.09
2023-05-05T06:30:15.805Z,51.30
2023-05-05T06:32:43.653Z,51.05
2023-05-05T06:35:11.671Z,51.78
2023-05-05T06:37:39.600Z,50.94
2023-05-05T06:40:09.439Z,52.82
2023-05-05T06:42:37.556Z,51.96
2023-05-05T06:45:06.113Z,52.50
2023-05-05T06:47:35.852Z,51.11
2023-05-05T06:50:03.879Z,53.03
2023-05-05T06:52:31.792Z,51.87
2023-05-05T06:54:59.722Z,50.66
2023-05-05T06:57:27.562Z,50.73
2023-05-05T06:59:55.427Z,51.37
2023-05-05T07:02:25.258Z,51.25
2023-05-05T07:04:56.341Z,52.62
2023-05-05T07:07:24.236Z,51.27
2023-05-05T07:09:52.187Z,49.57
2023-05-05T07:12:20.095Z,51.35
2023-05-05T07:14:48.085Z,51.24
2023-05-05T07:17:18.720Z,51.59
2023-05-05T07:19:55.027Z,52.00
2023-05-05T07:22:24.328Z,52.52
2023-05-05T07:24:53.395Z,52.27
2023-05-05T07:27:22.507Z,50.99
2023-05-05T07:29:50.454Z,51.17
2023-05-05T07:32:21.516Z,52.34
2023-05-05T07:34:49.400Z,52.20
2023-05-05T07:37:17.326Z,51.43
2023-05-05T07:39:47.442Z,53.21
2023-05-05T07:42:15.350Z,51.84
2023-05-05T07:44:43.216Z,51.74
2023-05-05T07:47:11.130Z,51.97
2023-05-05T07:49:38.981Z,52.76
2023-05-05T07:52:06.960Z,52.05
2023-05-05T07:54:34.743Z,54.11
2023-05-05T07:57:03.990Z,54.69
2023-05-05T07:59:31.838Z,54.54
2023-05-05T08:01:59.684Z,53.79
2023-05-05T08:04:27.569Z,54.26
2023-05-05T08:06:55.412Z,54.02
2023-05-05T08:09:23.283Z,54.75
2023-05-05T08:11:51.116Z,54.79
2023-05-05T08:14:20.389Z,54.06
2023-05-05T08:16:48.247Z,54.29
2023-05-05T08:19:28.115Z,54.02
2023-05-05T08:21:58.856Z,53.32
2023-05-05T08:24:27.946Z,54.44
2023-05-05T08:26:56.659Z,54.49
2023-05-05T08:29:26.026Z,55.10
2023-05-05T08:31:54.046Z,54.50
2023-05-05T08:34:21.873Z,54.84
2023-05-05T08:36:50.950Z,54.72
2023-05-05T08:39:19.108Z,54.45
2023-05-05T08:41:47.616Z,54.37
2023-05-05T08:58:21.354Z,54.09
2023-05-05T09:00:51.410Z,55.24
2023-05-05T09:03:19.588Z,56.41
2023-05-05T09:05:47.520Z,54.72
2023-05-05T09:08:15.660Z,54.53
2023-05-05T09:10:45.071Z,54.98
2023-05-05T09:13:13.303Z,55.82
2023-05-05T09:15:42.161Z,55.85
2023-05-05T09:18:13.038Z,54.81
2023-05-05T09:20:42.197Z,55.28
2023-05-05T09:23:11.684Z,55.48
2023-05-05T09:25:40.347Z,54.83
2023-05-05T09:28:13.195Z,53.68
2023-05-05T09:30:42.772Z,53.48
2023-05-05T09:33:12.556Z,52.50
2023-05-05T09:35:51.976Z,52.88
2023-05-05T09:38:20.893Z,51.77
2023-05-05T09:40:50.046Z,51.19
2023-05-05T09:43:19.842Z,50.70
2023-05-05T09:45:49.201Z,51.67
2023-05-05T09:48:29.498Z,50.54
2023-05-05T09:50:59.067Z,51.49
2023-05-05T09:53:28.217Z,51.24
2023-05-05T09:55:57.270Z,51.38
2023-05-05T09:58:27.129Z,50.95
2023-05-05T10:00:56.526Z,49.70
2023-05-05T10:03:25.466Z,48.10
2023-05-05T10:05:56.551Z,49.32
2023-05-05T10:08:26.432Z,48.04
2023-05-05T10:10:56.201Z,48.84
2023-05-05T10:13:26.241Z,47.54
2023-05-05T10:15:56.376Z,44.98
2023-05-05T10:18:27.164Z,46.11
2023-05-05T10:21:03.580Z,45.04
2023-05-05T10:23:39.545Z,45.25
2023-05-05T10:26:09.396Z,45.45
2023-05-05T10:28:45.710Z,44.62
2023-05-05T10:31:25.998Z,46.40
2023-05-05T10:34:00.687Z,46.84
2023-05-05T10:36:34.282Z,45.93
2023-05-05T10:39:06.724Z,46.42
2023-05-05T10:41:36.128Z,48.26
2023-05-05T10:44:06.101Z,48.64
2023-05-05T10:46:34.703Z,48.47
2023-05-05T10:49:14.157Z,48.06
2023-05-05T10:51:56.585Z,46.51
2023-05-05T10:54:35.242Z,45.63
2023-05-05T10:57:08.194Z,46.98
2023-05-05T10:59:43.900Z,45.71
2023-05-05T11:02:26.405Z,44.16
2023-05-05T11:05:14.242Z,44.55
2023-05-05T11:07:51.541Z,42.13
2023-05-05T11:10:23.059Z,44.07
2023-05-05T11:13:20.219Z,45.35
2023-05-05T11:15:49.526Z,47.19
2023-05-05T11:18:38.996Z,47.63
2023-05-05T11:21:18.793Z,48.68
2023-05-05T11:23:50.439Z,49.69
2023-05-05T11:26:53.392Z,51.06
2023-05-05T11:29:21.464Z,50.46
2023-05-05T11:32:12.995Z,50.45
2023-05-05T11:34:50.304Z,51.55
2023-05-05T11:37:18.407Z,52.22
2023-05-05T11:40:08.675Z,52.01
2023-05-05T11:42:37.545Z,52.72
2023-05-05T11:45:21.744Z,53.53
2023-05-05T11:47:49.858Z,54.13
2023-05-05T11:50:23.308Z,54.81
2023-05-05T11:52:51.623Z,56.34
2023-05-05T11:55:24.078Z,55.51
2023-05-05T11:57:52.203Z,56.16
2023-05-05T12:00:20.886Z,55.92
2023-05-05T12:02:57.797Z,56.71
2023-05-05T12:05:26.301Z,56.11
2023-05-05T12:08:00.252Z,55.76
2023-05-05T12:10:30.720Z,55.63
2023-05-05T12:12:59.440Z,54.35
2023-05-05T12:15:32.106Z,55.25
2023-05-05T12:18:29.965Z,57.09
2023-05-05T12:21:10.278Z,57.10
2023-05-05T12:23:53.011Z,58.52
2023-05-05T12:26:29.402Z,56.27
2023-05-05T12:28:58.033Z,55.95
2023-05-05T12:31:35.721Z,56.07
2023-05-05T12:34:12.775Z,54.94
2023-05-05T12:36:41.677Z,54.77
2023-05-05T12:39:09.752Z,54.60
2023-05-05T12:41:39.387Z,55.01
2023-05-05T12:44:08.025Z,55.02
2023-05-05T12:46:46.498Z,54.19
2023-05-05T12:49:14.908Z,55.27
2023-05-05T12:51:54.691Z,56.48
2023-05-05T12:54:23.856Z,57.57
2023-05-05T12:56:53.388Z,56.69
2023-05-05T12:59:31.908Z,56.42
2023-05-05T13:02:02.891Z,56.16
2023-05-05T13:04:31.200Z,56.03
2023-05-05T13:07:13.718Z,55.95
2023-05-05T13:09:42.384Z,55.99
2023-05-05T13:12:12.717Z,54.80
2023-05-05T13:14:41.211Z,53.80
2023-05-05T13:17:09.550Z,50.74
2023-05-05T13:19:43.680Z,50.12
2023-05-05T13:22:11.732Z,48.57
2023-05-05T13:24:50.943Z,46.93
2023-05-05T13:27:21.953Z,47.88
2023-05-05T13:29:50.121Z,45.05
2023-05-05T13:32:19.666Z,45.01
2023-05-05T13:34:47.904Z,44.79
2023-05-05T13:37:15.981Z,46.51
2023-05-05T13:39:44.556Z,45.55
2023-05-05T13:42:13.885Z,45.84
2023-05-05T13:44:43.519Z,44.27
2023-05-05T13:47:11.521Z,44.97
2023-05-05T13:49:39.689Z,45.91
2023-05-05T13:52:08.057Z,46.71
2023-05-05T13:54:36.845Z,45.91
2023-05-05T13:57:05.054Z,45.89
2023-05-05T13:59:40.412Z,44.71
2023-05-05T14:02:09.986Z,45.19
2023-05-05T14:04:38.373Z,45.18
2023-05-05T14:07:06.436Z,46.99
2023-05-05T14:09:34.522Z,46.13
2023-05-05T14:12:12.313Z,45.19
2023-05-05T14:14:40.424Z,45.34
2023-05-05T14:17:09.989Z,45.00
2023-05-05T14:19:38.223Z,45.76
2023-05-05T14:22:06.626Z,45.97
2023-05-05T14:24:34.792Z,45.69
2023-05-05T14:27:04.521Z,46.58
2023-05-05T14:29:32.585Z,46.34
2023-05-05T14:32:01.915Z,46.01
2023-05-05T14:34:31.503Z,45.17
2023-05-05T14:36:59.722Z,46.07
2023-05-05T14:39:27.842Z,45.32
2023-05-05T14:41:56.074Z,45.54
2023-05-05T14:44:24.175Z,44.58
2023-05-05T14:46:53.681Z,45.51
2023-05-05T14:49:21.959Z,45.19
2023-05-05T14:51:51.664Z,45.40
2023-05-05T14:54:27.969Z,45.54
2023-05-05T14:57:00.396Z,45.70
2023-05-05T14:59:31.282Z,45.07
2023-05-05T15:02:02.467Z,46.64
2023-05-05T15:04:30.959Z,46.02
2023-05-05T15:07:02.210Z,46.73
2023-05-05T15:09:31.569Z,46.00
2023-05-05T15:11:59.759Z,46.44
2023-05-05T15:14:29.361Z,45.84
2023-05-05T15:16:58.137Z,46.86
2023-05-05T15:19:26.181Z,46.99
2023-05-05T15:22:01.422Z,47.12
2023-05-05T15:24:31.167Z,45.27
2023-05-05T15:26:59.367Z,46.00
2023-05-05T15:29:27.409Z,46.15
2023-05-05T15:31:55.524Z,45.50
2023-05-05T15:34:23.875Z,46.47
2023-05-05T15:36:51.908Z,45.56
2023-05-05T15:39:20.916Z,45.55
2023-05-05T15:41:52.518Z,45.81
2023-05-05T15:44:22.918Z,46.89
2023-05-05T15:46:55.589Z,46.15
2023-05-05T15:49:25.210Z,46.97
2023-05-05T15:54:51.110Z,47.92
2023-05-05T15:57:20.676Z,47.22
2023-05-05T15:59:52.234Z,47.58
2023-05-05T16:02:20.584Z,49.20
2023-05-05T16:04:48.830Z,48.19
2023-05-05T16:07:17.028Z,48.88
2023-05-05T16:09:45.441Z,49.64
2023-05-05T16:12:13.736Z,48.88
2023-05-05T16:14:43.241Z,48.82
2023-05-05T16:17:11.520Z,46.89
2023-05-05T16:19:42.683Z,49.05
2023-05-05T16:22:10.794Z,47.88
2023-05-05T16:24:38.850Z,48.11
2023-05-05T16:27:06.906Z,47.66
2023-05-05T16:29:34.850Z,48.28
2023-05-05T16:32:04.803Z,48.26
2023-05-05T16:34:32.917Z,48.94
2023-05-05T16:37:01.291Z,48.94
2023-05-05T16:39:29.347Z,50.55
2023-05-05T16:41:57.416Z,49.61
2023-05-05T16:44:25.724Z,51.89
2023-05-05T16:46:53.710Z,52.74
2023-05-05T16:49:25.951Z,52.52
2023-05-05T16:51:54.091Z,52.37
2023-05-05T16:54:22.127Z,52.72
2023-05-05T16:57:09.664Z,54.14
2023-05-05T16:59:44.877Z,56.50
2023-05-05T17:02:12.939Z,58.89
2023-05-05T17:04:42.899Z,58.42
2023-05-05T17:07:15.314Z,59.31
2023-05-05T17:09:46.644Z,59.12
2023-05-05T17:12:17.129Z,59.74
2023-05-05T17:14:46.039Z,58.79
2023-05-05T17:17:15.616Z,59.15
2023-05-05T17:19:46.709Z,59.41
2023-05-05T17:22:15.731Z,58.75
2023-05-05T17:24:49.835Z,57.07
2023-05-05T17:27:20.047Z,56.82
2023-05-05T17:30:03.110Z,56.31
2023-05-05T17:32:37.107Z,56.79
2023-05-05T17:35:07.812Z,56.55
2023-05-05T17:37:36.192Z,58.14
2023-05-05T17:40:04.445Z,57.44
2023-05-05T17:42:33.149Z,57.12
2023-05-05T17:45:01.324Z,58.90
2023-05-05T17:47:30.040Z,58.70
2023-05-05T17:49:58.349Z,59.39
2023-05-05T17:52:27.804Z,60.20
2023-05-05T17:54:55.966Z,61.87
2023-05-05T17:57:24.206Z,60.31
2023-05-05T17:59:55.089Z,60.36
2023-05-05T18:02:29.510Z,60.07
2023-05-05T18:04:57.617Z,59.47
2023-05-05T18:07:27.771Z,59.76
2023-05-05T18:09:57.598Z,63.57
2023-05-05T18:12:28.915Z,63.22
2023-05-05T18:15:06.014Z,61.64
2023-05-05T18:21:17.840Z,63.68
2023-05-05T18:23:47.346Z,65.71
2023-05-05T18:26:15.582Z,67.20
2023-05-05T18:28:46.017Z,68.15
2023-05-05T18:31:13.996Z,71.27
2023-05-05T18:33:42.299Z,71.08
2023-05-05T18:36:10.200Z,72.64
2023-05-05T18:38:38.193Z,73.45
2023-05-05T18:41:07.697Z,74.87
2023-05-05T18:43:35.692Z,76.45
2023-05-05T18:46:03.610Z,78.45
2023-05-05T18:48:31.944Z,80.68
2023-05-05T18:51:02.679Z,79.61
2023-05-05T18:53:31.284Z,80.56
2023-05-05T18:56:00.604Z,81.61
2023-05-05T18:58:30.787Z,82.85
2023-05-05T19:00:58.969Z,81.58
2023-05-05T19:03:26.893Z,82.31
2023-05-05T19:05:54.822Z,81.95
2023-05-05T19:08:22.774Z,82.13
2023-05-05T19:10:50.599Z,81.24
2023-05-05T19:13:18.497Z,82.14
2023-05-05T19:15:47.925Z,83.46
2023-05-05T19:18:16.096Z,83.35
2023-05-05T19:20:43.927Z,83.25
2023-05-05T19:23:14.899Z,83.13
2023-05-05T19:25:42.773Z,81.82
2023-05-05T19:28:10.738Z,80.88
2023-05-05T19:30:38.927Z,82.25
2023-05-05T19:33:08.406Z,82.17
2023-05-05T19:35:36.312Z,82.81
2023-05-05T19:38:04.272Z,81.58
2023-05-05T19:40:32.163Z,82.03
2023-05-05T19:43:00.055Z,84.58
2023-05-05T19:45:27.894Z,85.11
2023-05-05T19:47:56.753Z,85.82
2023-05-05T19:50:26.914Z,85.80
2023-05-05T19:52:55.365Z,86.32
2023-05-05T19:55:23.491Z,85.16
2023-05-05T19:57:51.411Z,86.12
2023-05-05T20:01:23.031Z,85.41
2023-05-05T20:03:51.175Z,86.27
2023-05-05T20:06:20.552Z,85.70
2023-05-05T20:08:48.664Z,86.80
2023-05-05T20:11:17.914Z,86.53
2023-05-05T20:13:45.869Z,87.21
2023-05-05T20:16:15.715Z,87.31
2023-05-05T20:18:58.637Z,87.32
2023-05-05T20:21:27.921Z,87.91
2023-05-05T20:24:19.342Z,88.19
2023-05-05T20:28:10.683Z,87.97
2023-05-05T20:30:38.544Z,85.48
2023-05-05T20:33:06.523Z,86.28
2023-05-05T20:35:35.457Z,86.99
2023-05-05T20:41:10.478Z,86.27
2023-05-05T20:43:38.629Z,86.13
2023-05-05T20:46:07.171Z,87.36
2023-05-05T20:48:35.362Z,87.00
2023-05-05T20:51:04.732Z,86.16
2023-05-05T20:53:34.145Z,86.98
2023-05-05T20:56:02.124Z,87.64
2023-05-05T20:58:30.574Z,87.57
2023-05-05T21:00:58.435Z,88.72
2023-05-05T21:03:26.544Z,88.35
2023-05-05T21:20:30.313Z,88.02
2023-05-05T21:22:58.142Z,87.86
2023-05-05T21:25:26.730Z,88.38
2023-05-05T21:31:43.743Z,87.18
2023-05-05T21:34:14.157Z,87.76
2023-05-05T21:36:43.381Z,87.65
2023-05-05T21:39:11.286Z,87.35
2023-05-05T21:41:39.251Z,86.97
2023-05-05T21:44:09.922Z,88.45
2023-05-05T21:46:37.826Z,89.71
2023-05-05T21:49:14.311Z,89.96
2023-05-05T21:51:45.104Z,90.22
2023-05-05T21:54:13.275Z,90.05
2023-05-05T21:56:41.131Z,89.93
2023-05-05T21:59:09.089Z,89.94
2023-05-05T22:02:03.508Z,89.86
2023-05-05T22:04:31.803Z,89.99
2023-05-05T22:07:04.287Z,89.92
2023-05-05T22:09:34.027Z,90.34
2023-05-05T22:12:03.984Z,91.33
2023-05-05T22:14:38.356Z,91.05
2023-05-05T22:17:06.251Z,91.00
2023-05-05T22:19:34.097Z,91.52
2023-05-05T22:22:03.326Z,92.04
2023-05-05T22:24:31.236Z,91.74
2023-05-05T22:26:59.061Z,91.93
2023-05-05T22:29:26.948Z,91.67
2023-05-05T22:31:54.857Z,92.05
2023-05-05T22:34:23.822Z,91.17
2023-05-05T22:36:51.662Z,91.77
2023-05-05T22:39:23.703Z,91.36
2023-05-05T22:41:51.734Z,91.93
2023-05-05T22:44:21.550Z,91.67
2023-05-05T22:46:49.463Z,90.83
2023-05-05T22:49:17.394Z,91.21
2023-05-05T22:51:45.310Z,91.12
2023-05-05T22:54:13.114Z,91.72
2023-05-05T22:56:42.290Z,91.20
2023-05-05T22:59:10.185Z,90.90
2023-05-05T23:01:38.841Z,90.83
2023-05-05T23:04:07.316Z,91.42
2023-05-05T23:06:35.208Z,91.53
2023-05-05T23:09:03.109Z,90.07
2023-05-05T23:11:30.964Z,90.60
2023-05-05T23:14:00.194Z,90.85
2023-05-05T23:16:28.127Z,89.71
2023-05-05T23:18:56.072Z,90.05
2023-05-05T23:21:23.824Z,90.85
2023-05-05T23:23:51.523Z,90.58
2023-05-05T23:26:22.351Z,90.58
2023-05-05T23:28:50.132Z,91.24
2023-05-05T23:31:19.386Z,90.50
2023-05-05T23:33:47.273Z,91.08
2023-05-05T23:36:15.160Z,90.05
2023-05-05T23:38:42.941Z,90.20
2023-05-05T23:41:10.879Z,91.05
2023-05-05T23:43:38.695Z,92.24
2023-05-05T23:46:06.682Z,89.92
2023-05-05T23:48:35.859Z,88.93
2023-05-05T23:51:03.691Z,89.64
2023-05-05T23:53:31.507Z,89.93
2023-05-05T23:55:59.366Z,90.05
2023-05-05T23:58:27.568Z,91.19
